Sturgeon Bay, WI (54235)

3:04 AM CST on February 10, 2016 (GMT -0600)
Leif Everson Observatory | | Change Station
CLOSE
Current Station
Personal Weather Station
Location: Sturgeon Bay, WI
Elevation: 636 ft
Nearby Weather Stations

Elev 636 ft 44.83 °N, 87.34 °W | Updated 2 minutes ago

Clear
Clear
8.3 °F
Feels Like -6 °F
N
10.0
Wind Variable Wind from NNW
Gusts 10.0 mph

Today
High -- | Low -- °F
--% Chance of Precip.
Yesterday
High -- | Low -- °F
Precip. -- in
Pressure 29.92 in
Visibility -9999.0 miles
Clouds Clear
Windchill -6 °F
Dew Point -0 °F
Humidity 67%
Rainfall 0.00 in
Snow Depth Not available.
6:58 AM 5:10 PM
Waxing Crescent, 4% visible
METAR KSUE 100855Z AUTO 32014G21KT CLR M13/M20 A2992 RMK AO1 52003
Pressure 29.92 in
Visibility -9999.0 miles
Clouds Clear
Windchill -6 °F
Dew Point -0 °F
Humidity 67%
Rainfall 0.00 in
Snow Depth Not available.
6:58 AM 5:10 PM
Waxing Crescent, 4% visible
METAR KSUE 100855Z AUTO 32014G21KT CLR M13/M20 A2992 RMK AO1 52003

10-Day Weather Forecast

Almanac

Astronomy

Feb. 10, 2016 Rise Set
Actual Time
Civil Twilight
Nautical Twilight
Astronomical Twilight
Moon
Length of Visible Light
Length of Day
Tomorrow will be .
, % of the Moon is Illuminated

Today's Extremes

State Highs State Lows

Community

WunderPhotos

Upload Photos

1,891,826 photos uploaded!

WunderBlog® & News

Nearby

Air Quality

  Air Quality AQ Index Pollutant
Not available.

Snow Depth

Station Depth Elevation

Earthquake Activity

City Distance Mag. Time & Date
Minimum magnitude displayed is 2.5.

Coastal Water Temperatures

Place Temperature

Stations

Nearby Weather Stations

Station Location Temp. Windchill Dew Point Humidity Wind Precip. Elev Updated Type
                   

Watches & Warnings

There are currently no watches in effect.